Time;durP1;ratioP1;P1;durP2;ratioP2;P2;SDS_P1;SDS_P2;PMS_P1;PMS_P2;Temp;Humidity;BMP_temperature;BMP_pressure;BME280_temperature;BME280_humidity;BME280_pressure;Samples;Min_cycle;Max_cycle;Signal;HPM_P1;HPM_P2
2022/01/30 00:00:49;;;;;;;25.13;4.20;;;;;;;;;;5071073;28;20075;-68
2022/01/30 00:03:16;;;;;;;21.83;3.50;;;;;;;;;;5068378;28;20478;-69
2022/01/30 00:05:42;;;;;;;20.10;3.97;;;;;;;;;;5069640;28;20123;-68
2022/01/30 00:08:08;;;;;;;17.83;3.25;;;;;;;;;;5067441;28;20115;-69
2022/01/30 00:10:39;;;;;;;18.63;3.25;;;;;;;;;;5069003;28;20053;-69
2022/01/30 00:13:07;;;;;;;14.60;2.87;;;;;;;;;;5067839;28;20071;-69
2022/01/30 00:15:41;;;;;;;25.50;4.20;;;;;;;;;;5067101;28;20359;-69
2022/01/30 00:21:14;;;;;;;21.17;4.63;;;;;;;;;;5070964;28;20087;-69
2022/01/30 00:23:47;;;;;;;17.98;3.28;;;;;;;;;;5070682;28;20132;-68
2022/01/30 00:26:16;;;;;;;14.85;3.17;;;;;;;;;;5064967;28;20111;-68
2022/01/30 00:28:42;;;;;;;19.70;3.20;;;;;;;;;;5068648;28;20041;-68
2022/01/30 00:31:08;;;;;;;19.17;3.40;;;;;;;;;;5062600;28;20044;-68
2022/01/30 00:33:34;;;;;;;18.42;2.88;;;;;;;;;;5049721;28;20049;-68
2022/01/30 00:36:00;;;;;;;16.95;3.50;;;;;;;;;;5070415;28;20047;-68
2022/01/30 00:38:27;;;;;;;13.77;2.95;;;;;;;;;;5066553;28;20033;-68
2022/01/30 00:40:53;;;;;;;23.45;3.60;;;;;;;;;;5050054;28;20588;-69
2022/01/30 00:43:20;;;;;;;16.63;3.10;;;;;;;;;;5068778;28;20039;-68
2022/01/30 00:45:47;;;;;;;19.13;3.15;;;;;;;;;;5071110;28;20082;-68
2022/01/30 00:48:12;;;;;;;27.92;3.70;;;;;;;;;;5069021;28;20552;-68
2022/01/30 00:50:39;;;;;;;13.20;3.00;;;;;;;;;;5044170;28;20040;-68
2022/01/30 00:53:05;;;;;;;18.85;3.78;;;;;;;;;;5072126;28;20032;-68
2022/01/30 00:55:31;;;;;;;20.05;3.20;;;;;;;;;;5069778;28;20354;-68
2022/01/30 00:57:57;;;;;;;20.60;3.35;;;;;;;;;;5071811;28;20218;-68
2022/01/30 01:00:24;;;;;;;16.52;3.10;;;;;;;;;;5063654;28;20094;-69
2022/01/30 01:02:50;;;;;;;16.15;3.70;;;;;;;;;;5064749;28;20372;-69
2022/01/30 01:05:17;;;;;;;16.55;3.53;;;;;;;;;;5054447;28;20041;-69
2022/01/30 01:07:46;;;;;;;22.15;3.88;;;;;;;;;;5070310;28;20170;-68
2022/01/30 01:23:42;;;;;;;16.25;3.35;;;;;;;;;;5072823;28;20584;-68
2022/01/30 01:26:09;;;;;;;15.90;3.08;;;;;;;;;;5069323;28;20037;-67
2022/01/30 01:28:35;;;;;;;17.33;2.83;;;;;;;;;;5062251;28;20040;-68
2022/01/30 01:31:01;;;;;;;13.82;2.90;;;;;;;;;;5062742;28;20166;-68
2022/01/30 01:33:36;;;;;;;16.63;3.15;;;;;;;;;;5063519;28;20505;-68
2022/01/30 01:36:02;;;;;;;17.35;2.70;;;;;;;;;;5066235;28;20041;-67
2022/01/30 01:38:28;;;;;;;20.10;3.72;;;;;;;;;;5078884;28;20046;-68
2022/01/30 01:40:55;;;;;;;20.15;3.80;;;;;;;;;;5071306;28;20048;-68
2022/01/30 01:43:22;;;;;;;19.75;4.00;;;;;;;;;;5085540;22;20646;-65
2022/01/30 01:45:50;;;;;;;23.83;3.90;;;;;;;;;;4996578;28;20062;-65
2022/01/30 01:48:17;;;;;;;23.10;3.75;;;;;;;;;;5006491;28;20065;-65
2022/01/30 01:50:53;;;;;;;22.85;4.03;;;;;;;;;;5010734;28;20045;-64
2022/01/30 01:53:22;;;;;;;22.27;3.92;;;;;;;;;;5010369;28;20120;-65
2022/01/30 01:55:48;;;;;;;20.98;4.35;;;;;;;;;;5011009;28;20049;-65
2022/01/30 01:58:14;;;;;;;22.58;2.97;;;;;;;;;;5003373;28;20034;-65
2022/01/30 02:00:40;;;;;;;18.35;3.40;;;;;;;;;;5004807;28;20042;-65
2022/01/30 02:03:06;;;;;;;17.17;3.35;;;;;;;;;;5007823;28;20065;-65
2022/01/30 02:05:34;;;;;;;21.63;3.88;;;;;;;;;;5008769;28;20125;-65
2022/01/30 02:10:56;;;;;;;21.02;3.33;;;;;;;;;;5007816;28;20054;-65
2022/01/30 02:23:57;;;;;;;18.60;3.20;;;;;;;;;;4991798;28;20637;-65
2022/01/30 02:27:21;;;;;;;20.92;4.22;;;;;;;;;;5002767;28;20038;-65
2022/01/30 02:29:47;;;;;;;26.65;4.55;;;;;;;;;;4999983;28;20045;-65
2022/01/30 02:32:13;;;;;;;21.73;4.13;;;;;;;;;;5008593;28;20041;-65
2022/01/30 02:34:39;;;;;;;23.10;4.03;;;;;;;;;;5005444;28;20046;-64
2022/01/30 02:37:05;;;;;;;25.75;4.25;;;;;;;;;;4999249;28;20068;-64
2022/01/30 02:39:31;;;;;;;25.13;4.35;;;;;;;;;;4990455;28;20129;-65
2022/01/30 02:41:58;;;;;;;20.50;3.90;;;;;;;;;;5007798;28;20559;-65
2022/01/30 02:44:38;;;;;;;20.38;3.90;;;;;;;;;;5009409;28;20132;-64
2022/01/30 02:47:09;;;;;;;26.13;3.83;;;;;;;;;;5006546;28;20126;-65
2022/01/30 02:50:07;;;;;;;;;;;;;;;;;;5001657;28;20522;-65
2022/01/30 02:52:30;;;;;;;24.63;4.03;;;;;;;;;;4995304;28;19924;-65
2022/01/30 02:54:56;;;;;;;22.40;4.45;;;;;;;;;;4995396;28;20057;-65
2022/01/30 02:57:22;;;;;;;26.33;4.53;;;;;;;;;;5008380;28;20061;-65
2022/01/30 02:59:50;;;;;;;25.40;4.63;;;;;;;;;;5007929;28;20076;-65
2022/01/30 03:02:16;;;;;;;29.00;4.07;;;;;;;;;;5003957;28;20044;-65
2022/01/30 03:04:42;;;;;;;28.52;4.78;;;;;;;;;;5008870;28;20038;-65
2022/01/30 03:07:08;;;;;;;25.90;5.13;;;;;;;;;;5004595;28;20065;-65
2022/01/30 03:09:34;;;;;;;20.13;4.55;;;;;;;;;;5006752;28;20137;-65
2022/01/30 03:12:00;;;;;;;29.35;4.53;;;;;;;;;;5004325;28;20034;-64
2022/01/30 03:14:26;;;;;;;24.08;4.13;;;;;;;;;;5000459;28;20037;-64
2022/01/30 03:16:53;;;;;;;19.85;4.05;;;;;;;;;;5003788;28;20038;-65
2022/01/30 03:19:19;;;;;;;24.17;4.25;;;;;;;;;;5005481;28;20466;-64
2022/01/30 03:21:45;;;;;;;26.92;4.43;;;;;;;;;;5006582;28;20120;-65
2022/01/30 03:24:11;;;;;;;24.45;4.97;;;;;;;;;;5002730;28;20045;-63
2022/01/30 03:26:39;;;;;;;19.77;3.85;;;;;;;;;;4994537;28;20034;-64
2022/01/30 03:29:07;;;;;;;18.25;3.95;;;;;;;;;;5007112;28;20045;-64
2022/01/30 03:31:34;;;;;;;25.23;4.25;;;;;;;;;;5008902;28;20510;-64
2022/01/30 03:34:00;;;;;;;26.20;3.67;;;;;;;;;;5002876;28;20041;-65
2022/01/30 03:36:26;;;;;;;24.38;4.55;;;;;;;;;;5008953;28;20044;-65
2022/01/30 03:38:51;;;;;;;26.20;5.00;;;;;;;;;;5005275;28;20046;-66
2022/01/30 03:41:17;;;;;;;18.52;3.92;;;;;;;;;;5009193;28;20465;-66
2022/01/30 03:43:43;;;;;;;21.30;3.70;;;;;;;;;;5006970;28;20327;-65
2022/01/30 03:46:09;;;;;;;26.45;5.00;;;;;;;;;;5006062;28;20042;-65
2022/01/30 03:48:35;;;;;;;29.58;3.97;;;;;;;;;;5009080;28;20038;-65
2022/01/30 03:51:01;;;;;;;29.40;4.20;;;;;;;;;;5008914;28;20091;-65
2022/01/30 03:53:27;;;;;;;28.08;4.65;;;;;;;;;;5005615;28;20034;-65
2022/01/30 03:55:53;;;;;;;29.77;4.68;;;;;;;;;;5003411;28;20037;-65
2022/01/30 03:58:19;;;;;;;26.25;4.68;;;;;;;;;;5008576;28;20125;-65
2022/01/30 04:00:45;;;;;;;31.08;5.80;;;;;;;;;;5006563;28;20056;-65
2022/01/30 04:03:11;;;;;;;32.63;5.10;;;;;;;;;;5006025;28;20042;-65
2022/01/30 04:05:37;;;;;;;25.15;4.95;;;;;;;;;;5007506;28;20515;-65
2022/01/30 04:08:04;;;;;;;22.83;4.15;;;;;;;;;;5006711;28;20117;-65
2022/01/30 04:10:30;;;;;;;26.67;4.63;;;;;;;;;;5003678;28;20049;-65
2022/01/30 04:12:57;;;;;;;32.78;5.38;;;;;;;;;;5004932;28;20559;-65
2022/01/30 04:15:23;;;;;;;24.00;4.60;;;;;;;;;;5001995;28;20042;-65
2022/01/30 04:17:49;;;;;;;29.67;4.78;;;;;;;;;;4995076;28;20041;-64
2022/01/30 04:20:15;;;;;;;32.95;6.30;;;;;;;;;;5002485;28;20487;-65
2022/01/30 04:22:41;;;;;;;33.40;5.72;;;;;;;;;;4999873;28;20042;-64
2022/01/30 04:25:07;;;;;;;33.97;5.70;;;;;;;;;;4992226;28;20046;-65
2022/01/30 04:27:33;;;;;;;34.25;5.88;;;;;;;;;;4992532;28;20030;-64
2022/01/30 04:29:59;;;;;;;27.55;5.20;;;;;;;;;;5007449;28;20091;-64
2022/01/30 04:32:27;;;;;;;27.95;4.88;;;;;;;;;;4988753;28;20134;-64
2022/01/30 04:34:57;;;;;;;31.77;5.22;;;;;;;;;;4991266;28;20111;-64
2022/01/30 04:37:34;;;;;;;34.38;5.25;;;;;;;;;;5005337;28;20052;-64
2022/01/30 04:53:52;;;;;;;29.00;5.00;;;;;;;;;;5004592;28;20054;-64
2022/01/30 04:59:38;;;;;;;22.10;4.35;;;;;;;;;;4992136;28;20567;-64
2022/01/30 05:02:08;;;;;;;26.00;4.45;;;;;;;;;;4999667;28;20035;-64
2022/01/30 05:09:32;;;;;;;35.72;5.70;;;;;;;;;;5005882;28;20078;-64
2022/01/30 05:11:58;;;;;;;33.50;6.03;;;;;;;;;;5000375;28;20042;-64
2022/01/30 05:14:27;;;;;;;33.65;5.13;;;;;;;;;;4994940;28;20887;-64
2022/01/30 05:16:54;;;;;;;35.70;6.05;;;;;;;;;;4995398;28;21518;-64
2022/01/30 05:19:20;;;;;;;28.05;5.25;;;;;;;;;;4995784;28;20058;-64
2022/01/30 05:21:46;;;;;;;33.28;5.28;;;;;;;;;;4993327;28;20064;-64
2022/01/30 05:24:12;;;;;;;28.58;6.53;;;;;;;;;;5002872;28;20039;-64
2022/01/30 05:26:41;;;;;;;39.67;7.03;;;;;;;;;;5001657;28;20044;-64
2022/01/30 05:29:07;;;;;;;34.80;6.55;;;;;;;;;;4998916;28;20091;-64
2022/01/30 05:31:33;;;;;;;32.65;5.97;;;;;;;;;;4997967;28;20041;-65
2022/01/30 05:33:59;;;;;;;32.70;6.10;;;;;;;;;;4999795;28;20038;-64
2022/01/30 05:36:25;;;;;;;40.95;6.68;;;;;;;;;;5006914;28;20045;-64
2022/01/30 05:38:51;;;;;;;38.00;7.35;;;;;;;;;;4998127;28;20550;-64
2022/01/30 05:41:18;;;;;;;46.22;7.20;;;;;;;;;;4995616;28;20500;-64
2022/01/30 05:43:47;;;;;;;43.80;6.65;;;;;;;;;;5001668;28;20120;-64
2022/01/30 05:46:17;;;;;;;46.28;7.88;;;;;;;;;;5000119;28;20085;-64
2022/01/30 05:48:43;;;;;;;43.60;7.18;;;;;;;;;;4982259;28;20042;-64
2022/01/30 05:51:09;;;;;;;36.60;7.25;;;;;;;;;;4993252;28;20045;-63
2022/01/30 05:53:35;;;;;;;37.80;7.53;;;;;;;;;;5004563;28;20057;-64
2022/01/30 05:56:01;;;;;;;39.97;5.88;;;;;;;;;;5004994;28;20038;-64
2022/01/30 05:58:27;;;;;;;44.15;7.43;;;;;;;;;;5002901;28;20065;-64
2022/01/30 06:00:53;;;;;;;42.30;6.45;;;;;;;;;;5007232;28;20201;-64
2022/01/30 06:03:19;;;;;;;46.13;8.63;;;;;;;;;;5001845;28;20030;-63
2022/01/30 06:05:46;;;;;;;46.45;7.18;;;;;;;;;;5003442;28;20044;-64
2022/01/30 06:08:16;;;;;;;39.63;7.13;;;;;;;;;;5008166;28;20486;-64
2022/01/30 06:10:42;;;;;;;43.35;7.18;;;;;;;;;;5003148;28;20470;-64
2022/01/30 06:13:08;;;;;;;35.55;6.03;;;;;;;;;;5000912;28;20061;-64
2022/01/30 06:15:34;;;;;;;33.85;6.80;;;;;;;;;;5005506;28;20042;-64
2022/01/30 06:18:00;;;;;;;43.83;6.90;;;;;;;;;;4997428;28;20034;-64
2022/01/30 06:20:26;;;;;;;44.05;6.88;;;;;;;;;;5008114;28;20033;-64
2022/01/30 06:22:52;;;;;;;43.92;6.93;;;;;;;;;;5002601;28;20042;-64
2022/01/30 06:25:18;;;;;;;45.45;7.60;;;;;;;;;;5004844;28;20052;-64
2022/01/30 06:27:44;;;;;;;33.35;7.10;;;;;;;;;;5000857;28;20030;-64
2022/01/30 06:30:10;;;;;;;36.42;7.00;;;;;;;;;;4997786;28;20272;-63
2022/01/30 06:32:36;;;;;;;39.13;6.82;;;;;;;;;;5007460;28;20414;-64
2022/01/30 06:35:03;;;;;;;35.88;7.05;;;;;;;;;;5007928;28;20048;-64
2022/01/30 06:37:30;;;;;;;39.30;7.13;;;;;;;;;;5001901;28;20046;-64
2022/01/30 06:39:56;;;;;;;41.83;8.40;;;;;;;;;;5047178;28;20073;-63
2022/01/30 06:42:23;;;;;;;39.67;7.70;;;;;;;;;;5001156;28;20061;-64
2022/01/30 06:44:49;;;;;;;39.15;6.88;;;;;;;;;;5011922;28;20041;-64
2022/01/30 06:47:15;;;;;;;34.08;7.03;;;;;;;;;;5001324;28;20073;-64
2022/01/30 06:49:41;;;;;;;43.40;7.07;;;;;;;;;;5006974;28;20568;-64
2022/01/30 06:52:09;;;;;;;42.22;6.70;;;;;;;;;;4997482;28;20041;-64
2022/01/30 06:54:35;;;;;;;42.63;6.78;;;;;;;;;;5003627;28;20034;-64
2022/01/30 06:57:01;;;;;;;38.92;6.63;;;;;;;;;;5001132;28;20402;-64
2022/01/30 06:59:27;;;;;;;39.90;6.78;;;;;;;;;;5004946;28;20486;-64
2022/01/30 07:01:53;;;;;;;30.38;5.80;;;;;;;;;;4996389;28;20083;-64
2022/01/30 07:04:19;;;;;;;32.13;6.40;;;;;;;;;;5004937;28;20034;-64
2022/01/30 07:06:45;;;;;;;36.58;6.60;;;;;;;;;;4997535;28;20957;-64
2022/01/30 07:09:11;;;;;;;38.80;6.90;;;;;;;;;;5004230;28;20129;-64
2022/01/30 07:11:37;;;;;;;40.33;7.25;;;;;;;;;;4997377;28;20054;-64
2022/01/30 07:14:03;;;;;;;45.35;7.68;;;;;;;;;;4995239;28;20034;-64
2022/01/30 07:16:29;;;;;;;42.13;7.68;;;;;;;;;;5003973;28;20510;-64
2022/01/30 07:18:55;;;;;;;44.90;7.97;;;;;;;;;;4995541;28;20088;-64
2022/01/30 07:21:22;;;;;;;37.95;7.18;;;;;;;;;;5006580;28;20033;-64
2022/01/30 07:23:48;;;;;;;38.47;6.80;;;;;;;;;;5001764;28;20115;-63
2022/01/30 07:26:14;;;;;;;42.05;6.70;;;;;;;;;;5003174;28;20037;-64
2022/01/30 07:28:39;;;;;;;36.45;6.70;;;;;;;;;;4998925;28;20034;-64
2022/01/30 07:31:06;;;;;;;34.42;6.60;;;;;;;;;;4998069;28;20048;-64
2022/01/30 07:33:33;;;;;;;46.33;7.70;;;;;;;;;;5000078;28;20084;-64
2022/01/30 07:35:59;;;;;;;44.88;8.75;;;;;;;;;;4997567;28;20117;-64
2022/01/30 07:38:27;;;;;;;37.42;7.32;;;;;;;;;;5004507;28;20083;-64
2022/01/30 07:40:53;;;;;;;36.53;7.53;;;;;;;;;;5003331;28;20041;-64
2022/01/30 07:45:47;;;;;;;50.65;8.27;;;;;;;;;;5067178;28;20075;-66
2022/01/30 07:48:15;;;;;;;35.75;6.00;;;;;;;;;;5064190;28;20029;-67
2022/01/30 07:50:41;;;;;;;45.10;7.60;;;;;;;;;;5068023;28;20049;-66
2022/01/30 07:53:07;;;;;;;34.33;6.93;;;;;;;;;;5062384;28;20063;-66
2022/01/30 07:55:33;;;;;;;46.10;7.53;;;;;;;;;;5081445;28;20085;-67
2022/01/30 07:57:59;;;;;;;36.22;6.53;;;;;;;;;;5080250;28;20409;-66
2022/01/30 08:00:25;;;;;;;43.92;7.35;;;;;;;;;;5073910;28;20055;-66
2022/01/30 08:02:51;;;;;;;43.35;7.22;;;;;;;;;;5085478;28;20032;-66
2022/01/30 08:05:17;;;;;;;39.40;7.18;;;;;;;;;;5078937;28;20068;-67
2022/01/30 08:07:43;;;;;;;51.13;8.18;;;;;;;;;;5082959;28;20059;-66
2022/01/30 08:10:09;;;;;;;38.55;7.00;;;;;;;;;;5080826;28;20123;-66
2022/01/30 08:12:37;;;;;;;46.08;8.18;;;;;;;;;;5079769;28;20040;-66
2022/01/30 08:15:04;;;;;;;41.05;6.43;;;;;;;;;;5084526;28;20111;-66
2022/01/30 08:17:32;;;;;;;37.95;6.93;;;;;;;;;;5085754;28;20519;-66
2022/01/30 08:19:58;;;;;;;39.75;7.30;;;;;;;;;;5090167;28;20128;-66
2022/01/30 08:22:28;;;;;;;51.00;8.43;;;;;;;;;;5092252;28;20036;-67
2022/01/30 08:24:54;;;;;;;48.67;9.13;;;;;;;;;;5089082;28;20040;-66
2022/01/30 08:27:20;;;;;;;43.35;7.53;;;;;;;;;;5084677;28;20112;-66
2022/01/30 08:29:46;;;;;;;45.05;7.70;;;;;;;;;;5086429;28;20428;-67
2022/01/30 08:32:12;;;;;;;48.65;7.53;;;;;;;;;;5087577;28;20115;-67
2022/01/30 08:34:39;;;;;;;42.53;6.30;;;;;;;;;;5093640;28;20097;-66
2022/01/30 08:37:05;;;;;;;35.17;6.72;;;;;;;;;;5082901;28;20123;-66
2022/01/30 08:39:31;;;;;;;42.22;7.45;;;;;;;;;;5084262;28;20037;-66
2022/01/30 08:41:57;;;;;;;35.65;6.82;;;;;;;;;;5078380;28;20051;-66
2022/01/30 08:44:23;;;;;;;33.20;6.22;;;;;;;;;;5079352;28;20056;-67
2022/01/30 08:46:49;;;;;;;33.72;6.72;;;;;;;;;;5084170;28;20118;-66
2022/01/30 08:49:15;;;;;;;33.53;6.22;;;;;;;;;;5076637;28;20048;-66
2022/01/30 08:51:41;;;;;;;35.30;6.35;;;;;;;;;;5080013;28;20055;-67
2022/01/30 08:54:07;;;;;;;34.83;6.82;;;;;;;;;;5086215;28;20064;-66
2022/01/30 08:56:33;;;;;;;43.20;7.28;;;;;;;;;;5080542;28;20044;-66
2022/01/30 08:58:59;;;;;;;40.33;6.93;;;;;;;;;;5085315;28;20093;-66
2022/01/30 09:01:25;;;;;;;41.03;6.65;;;;;;;;;;5085268;28;20033;-66
2022/01/30 09:03:51;;;;;;;36.20;6.38;;;;;;;;;;5080024;28;20203;-66
2022/01/30 09:06:17;;;;;;;34.03;7.15;;;;;;;;;;5090319;28;20643;-67
2022/01/30 09:08:43;;;;;;;30.17;5.50;;;;;;;;;;5090734;28;20111;-66
2022/01/30 09:11:09;;;;;;;32.83;6.82;;;;;;;;;;5083398;28;20151;-66
2022/01/30 09:13:35;;;;;;;26.35;4.95;;;;;;;;;;5082558;28;20040;-67
2022/01/30 09:16:02;;;;;;;33.80;6.50;;;;;;;;;;5087501;28;20090;-66
2022/01/30 09:18:30;;;;;;;29.08;6.25;;;;;;;;;;5091057;28;20075;-67
2022/01/30 09:20:56;;;;;;;37.92;6.78;;;;;;;;;;5084076;28;20523;-66
2022/01/30 09:23:22;;;;;;;42.53;6.15;;;;;;;;;;5073569;28;20036;-67
2022/01/30 09:25:48;;;;;;;36.55;6.68;;;;;;;;;;5087184;28;20036;-66
2022/01/30 09:28:14;;;;;;;45.90;6.72;;;;;;;;;;5080987;28;20108;-66
2022/01/30 09:30:40;;;;;;;41.10;6.63;;;;;;;;;;5080016;28;20040;-67
2022/01/30 09:33:06;;;;;;;41.13;5.82;;;;;;;;;;5081627;28;20033;-66
2022/01/30 09:35:32;;;;;;;38.63;6.82;;;;;;;;;;5089730;28;20083;-66
2022/01/30 09:37:59;;;;;;;41.85;6.55;;;;;;;;;;5081856;28;20040;-66
2022/01/30 09:40:24;;;;;;;31.23;6.28;;;;;;;;;;5082960;28;20040;-66
2022/01/30 09:42:51;;;;;;;36.97;6.47;;;;;;;;;;5080630;28;20094;-66
2022/01/30 09:45:20;;;;;;;30.52;6.95;;;;;;;;;;5084410;28;20453;-66
2022/01/30 09:47:47;;;;;;;43.13;7.32;;;;;;;;;;5079844;28;20533;-67
2022/01/30 09:50:13;;;;;;;36.60;7.03;;;;;;;;;;5092423;28;20170;-67
2022/01/30 09:52:39;;;;;;;31.25;6.57;;;;;;;;;;5082590;28;20070;-67
2022/01/30 09:55:08;;;;;;;42.15;7.20;;;;;;;;;;5081816;28;20039;-67
2022/01/30 09:57:34;;;;;;;43.08;6.80;;;;;;;;;;5087213;28;20040;-67
2022/01/30 10:00:00;;;;;;;32.70;6.07;;;;;;;;;;5084201;28;20048;-67
2022/01/30 10:02:26;;;;;;;36.83;7.63;;;;;;;;;;5085010;28;20394;-67
2022/01/30 10:04:53;;;;;;;35.17;6.72;;;;;;;;;;5090275;28;20039;-67
2022/01/30 10:07:21;;;;;;;32.58;6.70;;;;;;;;;;5089935;28;20036;-68
2022/01/30 10:09:50;;;;;;;36.05;6.72;;;;;;;;;;5080666;28;20434;-67
2022/01/30 10:12:19;;;;;;;37.63;6.78;;;;;;;;;;5084034;28;20067;-67
2022/01/30 10:14:48;;;;;;;44.83;7.05;;;;;;;;;;5076720;28;20044;-68
2022/01/30 10:18:02;;;;;;;37.33;6.88;;;;;;;;;;5081474;28;20036;-67
2022/01/30 10:20:35;;;;;;;34.45;6.55;;;;;;;;;;5073832;28;20040;-67
2022/01/30 10:23:08;;;;;;;34.45;6.70;;;;;;;;;;5074463;28;20040;-67
2022/01/30 10:25:35;;;;;;;36.80;6.78;;;;;;;;;;5077076;28;20044;-67
2022/01/30 10:28:07;;;;;;;39.22;6.63;;;;;;;;;;5086880;28;20064;-67
2022/01/30 10:30:59;;;;;;;45.17;7.25;;;;;;;;;;5079434;28;20052;-67
2022/01/30 10:33:47;;;;;;;33.38;7.57;;;;;;;;;;5071595;28;20141;-67
2022/01/30 10:36:18;;;;;;;31.27;6.32;;;;;;;;;;5083201;28;20517;-67
2022/01/30 10:38:52;;;;;;;35.30;6.53;;;;;;;;;;5085812;28;20054;-67
2022/01/30 10:41:20;;;;;;;37.60;6.95;;;;;;;;;;5088847;28;20048;-67
2022/01/30 10:43:52;;;;;;;48.28;7.00;;;;;;;;;;5085752;28;20493;-67
2022/01/30 10:46:19;;;;;;;38.90;6.63;;;;;;;;;;5084095;28;20486;-67
2022/01/30 10:49:14;;;;;;;31.15;5.95;;;;;;;;;;5078742;28;20493;-66
2022/01/30 10:51:50;;;;;;;34.58;5.82;;;;;;;;;;5056322;28;20048;-66
2022/01/30 10:54:16;;;;;;;38.10;6.82;;;;;;;;;;5070970;28;20040;-66
2022/01/30 10:57:00;;;;;;;29.33;6.63;;;;;;;;;;5087693;27;20461;-64
2022/01/30 10:59:26;;;;;;;29.05;5.90;;;;;;;;;;5087522;28;20397;-64
2022/01/30 11:01:52;;;;;;;34.17;5.30;;;;;;;;;;5087469;28;20036;-64
2022/01/30 11:04:24;;;;;;;32.17;6.18;;;;;;;;;;5077755;28;20033;-64
2022/01/30 11:06:51;;;;;;;43.63;7.07;;;;;;;;;;5066984;28;20037;-64
2022/01/30 11:09:23;;;;;;;39.97;7.68;;;;;;;;;;5083676;22;20043;-62
2022/01/30 11:11:54;;;;;;;38.63;7.07;;;;;;;;;;5068929;28;20044;-62
2022/01/30 11:14:24;;;;;;;41.50;7.07;;;;;;;;;;5068736;28;20452;-62
2022/01/30 11:19:26;;;;;;;40.30;7.40;;;;;;;;;;5078319;28;20485;-62
2022/01/30 11:22:03;;;;;;;35.08;6.82;;;;;;;;;;5089043;28;20037;-62
2022/01/30 11:24:29;;;;;;;40.50;7.10;;;;;;;;;;5089018;28;20061;-62
2022/01/30 11:26:55;;;;;;;27.17;6.65;;;;;;;;;;5088686;28;20116;-62
2022/01/30 11:29:21;;;;;;;37.40;7.15;;;;;;;;;;5088393;28;20465;-62
2022/01/30 11:31:48;;;;;;;33.00;6.35;;;;;;;;;;5088619;28;20041;-62
2022/01/30 11:34:14;;;;;;;32.85;6.05;;;;;;;;;;5088444;28;20040;-62
2022/01/30 11:36:42;;;;;;;40.88;6.57;;;;;;;;;;5088326;28;20036;-62
2022/01/30 11:39:09;;;;;;;40.65;6.50;;;;;;;;;;5088520;28;20037;-63
2022/01/30 11:41:35;;;;;;;38.70;6.68;;;;;;;;;;5088503;28;20037;-62
2022/01/30 11:44:19;;;;;;;36.47;6.75;;;;;;;;;;5087826;28;20044;-62
2022/01/30 11:46:58;;;;;;;41.88;7.18;;;;;;;;;;5088108;28;20186;-62
2022/01/30 11:49:41;;;;;;;28.80;5.45;;;;;;;;;;5087885;28;20055;-62
2022/01/30 11:52:09;;;;;;;38.65;5.25;;;;;;;;;;5067812;28;20044;-62
2022/01/30 11:54:43;;;;;;;37.03;5.72;;;;;;;;;;5067814;28;20048;-62
2022/01/30 11:57:18;;;;;;;30.95;4.90;;;;;;;;;;5068040;28;20033;-62
2022/01/30 11:59:45;;;;;;;28.48;5.95;;;;;;;;;;5067661;28;20509;-62
2022/01/30 12:02:24;;;;;;;36.58;5.72;;;;;;;;;;5069793;28;20052;-62
2022/01/30 12:04:54;;;;;;;27.80;5.22;;;;;;;;;;5087227;28;20089;-62
2022/01/30 12:07:37;;;;;;;26.88;5.40;;;;;;;;;;5079439;28;20044;-62
2022/01/30 12:10:21;;;;;;;32.83;6.10;;;;;;;;;;5074140;28;20532;-62
2022/01/30 12:12:51;;;;;;;29.52;6.82;;;;;;;;;;5056597;28;20051;-62
2022/01/30 12:15:35;;;;;;;30.38;5.78;;;;;;;;;;5073541;28;20047;-62
2022/01/30 12:18:01;;;;;;;27.50;5.75;;;;;;;;;;5074216;28;20068;-62
2022/01/30 12:20:29;;;;;;;34.55;6.05;;;;;;;;;;5073985;28;20048;-62
2022/01/30 12:22:55;;;;;;;33.88;5.90;;;;;;;;;;5074225;28;20040;-62
2022/01/30 12:25:24;;;;;;;33.10;5.90;;;;;;;;;;5073584;28;20036;-62
2022/01/30 12:27:56;;;;;;;35.22;6.03;;;;;;;;;;5074007;28;20494;-62
2022/01/30 12:30:31;;;;;;;23.88;4.80;;;;;;;;;;5073624;28;20070;-62
2022/01/30 12:32:57;;;;;;;35.97;6.13;;;;;;;;;;5074188;28;20101;-62
2022/01/30 12:35:24;;;;;;;31.10;6.13;;;;;;;;;;5073571;28;20536;-62
2022/01/30 12:37:50;;;;;;;26.67;5.38;;;;;;;;;;5073956;28;20094;-62
2022/01/30 12:40:16;;;;;;;30.65;6.18;;;;;;;;;;5074174;28;20040;-62
2022/01/30 12:42:42;;;;;;;29.67;5.25;;;;;;;;;;5073998;28;20036;-62
2022/01/30 12:45:09;;;;;;;34.08;5.60;;;;;;;;;;5073346;28;20040;-62
2022/01/30 12:47:46;;;;;;;33.25;5.50;;;;;;;;;;5073312;28;20045;-62
2022/01/30 12:50:12;;;;;;;22.90;4.82;;;;;;;;;;5072983;28;20048;-62
2022/01/30 12:52:39;;;;;;;30.42;4.97;;;;;;;;;;5073453;28;20418;-62
2022/01/30 12:55:10;;;;;;;22.92;5.03;;;;;;;;;;5073383;28;20045;-62
2022/01/30 12:57:36;;;;;;;;;;;;;;;;;;5074166;28;20082;-62
2022/01/30 13:00:05;;;;;;;26.70;5.13;;;;;;;;;;5073554;28;19920;-62
2022/01/30 13:02:33;;;;;;;27.88;4.88;;;;;;;;;;5073504;28;20033;-62
2022/01/30 13:05:03;;;;;;;27.48;5.10;;;;;;;;;;5071831;28;20062;-62
2022/01/30 13:07:29;;;;;;;25.95;5.43;;;;;;;;;;5073602;28;20033;-62
2022/01/30 13:10:09;;;;;;;27.98;4.90;;;;;;;;;;5055418;28;20056;-62
2022/01/30 13:12:35;;;;;;;27.90;4.50;;;;;;;;;;5073485;28;20044;-62
2022/01/30 13:15:08;;;;;;;33.08;6.20;;;;;;;;;;5072892;28;20041;-62
2022/01/30 13:17:34;;;;;;;35.05;5.85;;;;;;;;;;5072423;28;20090;-62
2022/01/30 13:20:00;;;;;;;25.88;6.57;;;;;;;;;;5071776;28;20044;-62
2022/01/30 13:22:34;;;;;;;32.33;5.20;;;;;;;;;;5073221;28;20040;-61
2022/01/30 13:25:01;;;;;;;31.90;6.03;;;;;;;;;;5072825;28;20131;-62
2022/01/30 13:27:27;;;;;;;30.33;6.32;;;;;;;;;;5073013;28;20083;-62
2022/01/30 13:29:56;;;;;;;32.72;5.38;;;;;;;;;;5072816;28;20459;-62
2022/01/30 13:32:23;;;;;;;31.75;5.43;;;;;;;;;;5072201;28;20469;-62
2022/01/30 13:34:49;;;;;;;32.08;5.65;;;;;;;;;;5072033;28;20041;-62
2022/01/30 13:37:16;;;;;;;37.00;6.10;;;;;;;;;;5055217;28;20044;-62
2022/01/30 13:39:48;;;;;;;27.77;5.70;;;;;;;;;;5072685;28;20078;-61
2022/01/30 13:47:54;;;;;;;29.45;5.65;;;;;;;;;;5071609;28;20040;-62
2022/01/30 13:50:21;;;;;;;35.05;6.18;;;;;;;;;;5071613;28;20044;-61
2022/01/30 13:52:47;;;;;;;32.08;5.60;;;;;;;;;;5072500;28;20086;-62
2022/01/30 13:55:13;;;;;;;29.00;5.57;;;;;;;;;;5071793;28;20118;-62
2022/01/30 13:57:43;;;;;;;25.20;5.00;;;;;;;;;;5072590;28;20568;-61
2022/01/30 14:00:11;;;;;;;29.17;4.80;;;;;;;;;;5072378;28;20040;-62
2022/01/30 14:02:53;;;;;;;25.05;4.72;;;;;;;;;;5071405;28;20501;-61
2022/01/30 14:05:27;;;;;;;17.77;4.35;;;;;;;;;;5071255;28;20041;-62
2022/01/30 14:07:54;;;;;;;30.02;5.13;;;;;;;;;;5072349;28;20566;-61
2022/01/30 14:10:24;;;;;;;37.22;5.40;;;;;;;;;;5072042;28;20242;-62
2022/01/30 14:12:51;;;;;;;27.95;5.13;;;;;;;;;;5072249;28;20079;-61
2022/01/30 14:15:21;;;;;;;28.75;4.95;;;;;;;;;;5071737;28;20066;-61
2022/01/30 14:18:02;;;;;;;33.50;4.82;;;;;;;;;;5071417;28;20509;-62
2022/01/30 14:20:31;;;;;;;30.85;4.50;;;;;;;;;;5072151;28;20489;-62
2022/01/30 14:23:08;;;;;;;29.88;5.18;;;;;;;;;;5072106;28;20042;-61
2022/01/30 14:25:34;;;;;;;27.27;4.20;;;;;;;;;;5071701;28;20075;-61
2022/01/30 14:28:00;;;;;;;30.02;4.85;;;;;;;;;;5071877;28;20040;-62
2022/01/30 14:30:36;;;;;;;28.95;5.78;;;;;;;;;;5071198;28;20044;-61
2022/01/30 14:33:02;;;;;;;32.30;5.20;;;;;;;;;;5071359;28;20061;-61
2022/01/30 14:35:34;;;;;;;26.98;4.68;;;;;;;;;;5070491;28;20093;-65
2022/01/30 14:38:01;;;;;;;32.00;5.55;;;;;;;;;;5070890;28;20512;-64
2022/01/30 14:40:27;;;;;;;27.10;4.75;;;;;;;;;;5076295;28;20036;-64
2022/01/30 14:42:53;;;;;;;27.52;4.85;;;;;;;;;;5064462;28;20116;-64
2022/01/30 14:45:19;;;;;;;27.20;4.93;;;;;;;;;;5066449;28;20033;-64
2022/01/30 14:47:45;;;;;;;32.28;5.55;;;;;;;;;;5071223;28;20094;-64
2022/01/30 14:50:11;;;;;;;34.50;5.28;;;;;;;;;;5078634;28;20051;-64
2022/01/30 14:52:37;;;;;;;25.35;4.85;;;;;;;;;;5071918;28;20040;-64
2022/01/30 14:55:04;;;;;;;25.27;5.05;;;;;;;;;;5071224;28;20047;-64
2022/01/30 14:57:30;;;;;;;34.75;5.95;;;;;;;;;;5073624;28;20037;-64
2022/01/30 14:59:56;;;;;;;25.27;5.32;;;;;;;;;;5070755;28;20041;-64
2022/01/30 15:02:21;;;;;;;32.55;4.95;;;;;;;;;;5080413;28;20085;-63
2022/01/30 15:04:47;;;;;;;31.35;5.38;;;;;;;;;;5069476;28;20132;-63
2022/01/30 15:07:14;;;;;;;32.10;5.80;;;;;;;;;;5075750;28;20032;-63
2022/01/30 15:09:40;;;;;;;31.52;5.53;;;;;;;;;;5069537;28;20078;-63
2022/01/30 15:12:07;;;;;;;25.38;5.18;;;;;;;;;;5068901;28;20486;-63
2022/01/30 15:14:36;;;;;;;31.58;6.20;;;;;;;;;;5077320;28;20032;-63
2022/01/30 15:17:04;;;;;;;37.15;5.80;;;;;;;;;;5072912;28;20068;-63
2022/01/30 15:19:30;;;;;;;36.25;6.30;;;;;;;;;;5070666;28;20040;-63
2022/01/30 15:21:56;;;;;;;30.05;5.40;;;;;;;;;;5065596;28;20032;-63
2022/01/30 15:24:23;;;;;;;30.67;5.45;;;;;;;;;;5071279;28;20036;-63
2022/01/30 15:26:50;;;;;;;34.05;5.63;;;;;;;;;;5068508;28;20040;-64
2022/01/30 15:29:16;;;;;;;29.30;5.60;;;;;;;;;;5071338;28;20039;-63
2022/01/30 15:31:42;;;;;;;30.90;5.43;;;;;;;;;;5069904;28;20041;-63
2022/01/30 15:34:08;;;;;;;26.60;5.40;;;;;;;;;;5071338;28;20067;-63
2022/01/30 15:36:35;;;;;;;29.58;5.15;;;;;;;;;;5070468;28;20099;-63
2022/01/30 15:39:01;;;;;;;30.73;5.35;;;;;;;;;;5070796;28;20037;-63